createdAt,value
2018-12-02T00:00:38.162Z,5.30
2018-12-02T00:01:43.428Z,4.95
2018-12-02T00:02:48.461Z,5.47
2018-12-02T00:03:54.054Z,4.28
2018-12-02T00:04:58.667Z,5.30
2018-12-02T00:06:03.284Z,6.80
2018-12-02T00:07:07.875Z,6.08
2018-12-02T00:08:13.543Z,4.55
2018-12-02T00:09:20.234Z,5.55
2018-12-02T00:10:25.901Z,5.58
2018-12-02T00:11:31.738Z,5.65
2018-12-02T00:12:36.669Z,9.10
2018-12-02T00:13:41.328Z,6.25
2018-12-02T00:14:46.697Z,5.95
2018-12-02T00:15:52.000Z,6.47
2018-12-02T00:16:57.267Z,9.00
2018-12-02T00:18:03.669Z,5.10
2018-12-02T00:19:10.543Z,6.58
2018-12-02T00:20:17.098Z,9.65
2018-12-02T00:21:22.865Z,8.83
2018-12-02T00:22:27.753Z,6.62
2018-12-02T00:23:33.930Z,8.15
2018-12-02T00:24:39.961Z,6.95
2018-12-02T00:25:44.595Z,10.43
2018-12-02T00:26:49.705Z,6.47
2018-12-02T00:27:55.636Z,11.83
2018-12-02T00:29:00.898Z,11.33
2018-12-02T00:30:11.760Z,11.95
2018-12-02T00:31:16.470Z,9.23
2018-12-02T00:32:23.071Z,10.10
2018-12-02T00:33:27.580Z,9.53
2018-12-02T00:34:33.328Z,11.53
2018-12-02T00:35:37.828Z,9.10
2018-12-02T00:36:42.974Z,9.38
2018-12-02T00:37:51.892Z,5.25
2018-12-02T00:38:58.073Z,6.17
2018-12-02T00:40:04.552Z,6.60
2018-12-02T00:41:11.163Z,6.75
2018-12-02T00:42:18.281Z,10.30
2018-12-02T00:43:23.972Z,10.50
2018-12-02T00:44:29.989Z,9.98
2018-12-02T00:45:38.284Z,12.90
2018-12-02T00:46:44.339Z,9.03
2018-12-02T00:47:49.773Z,8.00
2018-12-02T00:48:55.353Z,3.90
2018-12-02T00:50:01.181Z,6.97
2018-12-02T00:51:08.417Z,4.80
2018-12-02T00:52:15.692Z,4.00
2018-12-02T00:53:20.644Z,4.45
2018-12-02T00:54:26.260Z,9.93
2018-12-02T00:55:37.013Z,6.72
2018-12-02T00:56:47.262Z,5.92
2018-12-02T00:57:54.740Z,3.85
2018-12-02T00:59:00.120Z,4.92
2018-12-02T01:00:08.121Z,5.12
2018-12-02T01:01:13.886Z,5.90
2018-12-02T01:02:18.901Z,4.97
2018-12-02T01:03:25.564Z,4.47
2018-12-02T01:04:31.245Z,4.40
2018-12-02T01:05:35.967Z,3.77
2018-12-02T01:06:45.795Z,3.80
2018-12-02T01:07:51.622Z,4.95
2018-12-02T01:08:58.257Z,8.80
2018-12-02T01:10:04.582Z,7.55
2018-12-02T01:11:09.371Z,5.45
2018-12-02T01:12:13.962Z,4.40
2018-12-02T01:13:18.903Z,5.08
2018-12-02T01:14:23.429Z,3.50
2018-12-02T01:15:29.510Z,4.33
2018-12-02T01:16:36.170Z,4.08
2018-12-02T01:17:44.434Z,3.87
2018-12-02T01:18:56.295Z,3.52
2018-12-02T01:20:03.877Z,4.20
2018-12-02T01:21:09.277Z,6.15
2018-12-02T01:22:15.161Z,5.35
2018-12-02T01:23:19.771Z,5.35
2018-12-02T01:24:24.276Z,10.30
2018-12-02T01:25:28.819Z,6.58
2018-12-02T01:26:33.389Z,8.73
2018-12-02T01:27:37.894Z,5.90
2018-12-02T01:28:43.340Z,5.20
2018-12-02T01:29:47.899Z,8.58
2018-12-02T01:30:52.957Z,7.25
2018-12-02T01:31:57.813Z,7.85
2018-12-02T01:33:03.200Z,9.15
2018-12-02T01:34:08.090Z,11.57
2018-12-02T01:35:13.140Z,12.50
2018-12-02T01:36:17.726Z,14.47
2018-12-02T01:37:22.394Z,11.33
2018-12-02T01:38:27.002Z,15.35
2018-12-02T01:39:31.741Z,11.38
2018-12-02T01:40:36.425Z,12.85
2018-12-02T01:41:40.929Z,8.70
2018-12-02T01:42:45.825Z,11.10
2018-12-02T01:43:50.353Z,9.98
2018-12-02T01:44:59.312Z,31.73
2018-12-02T01:46:03.990Z,16.67
2018-12-02T01:47:08.458Z,13.72
2018-12-02T01:48:13.719Z,14.03
2018-12-02T01:49:18.305Z,11.50
2018-12-02T01:50:24.863Z,13.03
2018-12-02T01:51:29.446Z,12.78
2018-12-02T01:52:33.889Z,12.75
2018-12-02T01:53:38.516Z,13.25
2018-12-02T01:54:43.194Z,14.60
2018-12-02T01:55:47.661Z,10.70
2018-12-02T01:56:52.217Z,12.70
2018-12-02T01:57:57.524Z,14.13
2018-12-02T01:59:02.040Z,11.03
2018-12-02T02:00:14.945Z,11.95
2018-12-02T02:01:19.747Z,10.63
2018-12-02T02:02:24.231Z,11.43
2018-12-02T02:03:29.453Z,10.65
2018-12-02T02:04:33.972Z,9.63
2018-12-02T02:05:40.434Z,7.47
2018-12-02T02:06:44.985Z,11.70
2018-12-02T02:07:50.879Z,10.55
2018-12-02T02:08:55.628Z,9.80
2018-12-02T02:10:00.380Z,9.58
2018-12-02T02:11:05.922Z,10.50
2018-12-02T02:12:11.331Z,18.75
2018-12-02T02:13:15.929Z,10.75
2018-12-02T02:14:20.941Z,13.55
2018-12-02T02:15:25.668Z,10.45
2018-12-02T02:16:30.262Z,10.48
2018-12-02T02:17:36.361Z,16.40
2018-12-02T02:18:41.267Z,14.93
2018-12-02T02:19:47.428Z,10.68
2018-12-02T02:20:52.408Z,11.90
2018-12-02T02:21:57.389Z,13.40
2018-12-02T02:23:02.782Z,14.15
2018-12-02T02:24:08.152Z,17.32
2018-12-02T02:25:14.352Z,17.17
2018-12-02T02:26:18.965Z,13.72
2018-12-02T02:27:24.339Z,12.05
2018-12-02T02:28:32.286Z,11.45
2018-12-02T02:29:37.828Z,16.20
2018-12-02T02:30:43.288Z,12.20
2018-12-02T02:33:00.675Z,11.13
2018-12-02T02:34:05.813Z,7.47
2018-12-02T02:37:30.529Z,4.67
2018-12-02T02:50:47.778Z,5.40
2018-12-02T02:51:52.666Z,9.03
2018-12-02T02:53:03.126Z,9.70
2018-12-02T02:54:08.862Z,7.00
2018-12-02T02:55:13.662Z,7.75
2018-12-02T02:56:18.321Z,5.10
2018-12-02T02:57:22.970Z,7.80
2018-12-02T02:58:29.120Z,5.53
2018-12-02T02:59:33.962Z,4.55
2018-12-02T03:00:38.578Z,7.37
2018-12-02T03:01:43.245Z,8.35
2018-12-02T03:02:47.874Z,2.98
2018-12-02T03:03:53.373Z,6.15
2018-12-02T03:04:58.060Z,5.62
2018-12-02T03:06:02.692Z,7.22
2018-12-02T03:07:07.524Z,9.60
2018-12-02T03:08:12.384Z,8.43
2018-12-02T03:09:16.926Z,5.60
2018-12-02T03:10:22.482Z,6.05
2018-12-02T03:11:27.272Z,3.87
2018-12-02T03:12:32.049Z,4.55
2018-12-02T03:13:36.763Z,10.20
2018-12-02T03:14:41.439Z,8.53
2018-12-02T03:15:46.638Z,13.68
2018-12-02T03:16:52.364Z,6.05
2018-12-02T03:17:57.687Z,5.30
2018-12-02T03:19:03.259Z,7.97
2018-12-02T03:20:11.449Z,10.48
2018-12-02T03:21:16.144Z,13.90
2018-12-02T03:22:20.738Z,7.90
2018-12-02T03:23:25.330Z,9.83
2018-12-02T03:24:29.898Z,7.30
2018-12-02T03:25:35.694Z,7.10
2018-12-02T03:26:41.265Z,6.83
2018-12-02T03:27:45.876Z,6.03
2018-12-02T03:28:51.312Z,8.25
2018-12-02T03:29:56.103Z,10.32
2018-12-02T03:31:01.308Z,7.53
2018-12-02T03:32:06.489Z,10.18
2018-12-02T03:33:11.784Z,9.40
2018-12-02T03:34:16.631Z,13.35
2018-12-02T03:35:24.371Z,8.63
2018-12-02T03:36:30.304Z,9.18
2018-12-02T03:37:35.571Z,16.30
2018-12-02T03:38:40.269Z,10.48
2018-12-02T03:39:46.313Z,10.45
2018-12-02T03:40:51.153Z,15.58
2018-12-02T03:41:56.103Z,12.18
2018-12-02T03:43:00.747Z,17.65
2018-12-02T03:44:05.970Z,17.05
2018-12-02T03:45:12.022Z,23.30
2018-12-02T03:46:16.564Z,23.42
2018-12-02T03:47:21.171Z,27.75
2018-12-02T03:48:25.697Z,39.48
2018-12-02T03:49:30.276Z,53.65
2018-12-02T03:50:34.922Z,44.48
2018-12-02T03:51:41.288Z,50.10
2018-12-02T03:52:45.985Z,62.08
2018-12-02T03:53:50.582Z,60.60
2018-12-02T03:54:55.188Z,52.30
2018-12-02T03:55:59.712Z,47.62
2018-12-02T03:57:04.631Z,32.48
2018-12-02T03:58:09.281Z,31.52
2018-12-02T03:59:13.899Z,28.92
2018-12-02T04:00:19.834Z,28.65
2018-12-02T04:01:24.618Z,22.62
2018-12-02T04:02:29.264Z,23.50
2018-12-02T04:03:33.955Z,30.55
2018-12-02T04:04:38.652Z,33.00
2018-12-02T04:05:43.366Z,22.67
2018-12-02T04:06:47.991Z,30.23
2018-12-02T04:07:53.314Z,30.62
2018-12-02T04:08:58.726Z,28.73
2018-12-02T04:10:03.457Z,22.35
2018-12-02T04:11:08.090Z,25.97
2018-12-02T04:12:13.734Z,19.55
2018-12-02T04:13:19.306Z,23.85
2018-12-02T04:14:24.729Z,18.60
2018-12-02T04:15:32.115Z,21.40
2018-12-02T04:16:36.753Z,19.23
2018-12-02T04:17:41.426Z,25.30
2018-12-02T04:18:45.950Z,24.70
2018-12-02T04:19:50.599Z,13.20
2018-12-02T04:20:56.893Z,17.32
2018-12-02T04:22:01.543Z,18.23
2018-12-02T04:23:06.775Z,16.07
2018-12-02T04:24:11.411Z,18.10
2018-12-02T04:25:18.756Z,13.90
2018-12-02T04:26:24.929Z,17.05
2018-12-02T04:27:31.225Z,19.92
2018-12-02T04:28:36.081Z,22.35
2018-12-02T04:29:41.393Z,16.07
2018-12-02T04:30:48.386Z,14.55
2018-12-02T04:31:53.121Z,12.58
2018-12-02T04:32:58.298Z,17.50
2018-12-02T04:34:03.906Z,12.33
2018-12-02T04:35:12.989Z,14.45
2018-12-02T04:36:19.328Z,20.60
2018-12-02T04:37:24.817Z,19.10
2018-12-02T04:38:30.189Z,13.68
2018-12-02T04:39:34.782Z,22.07
2018-12-02T04:40:39.428Z,23.00
2018-12-02T04:41:44.067Z,19.50
2018-12-02T04:42:50.042Z,23.98
2018-12-02T04:43:54.778Z,26.68
2018-12-02T04:45:03.094Z,28.95
2018-12-02T04:46:08.279Z,17.27
2018-12-02T04:47:13.612Z,19.67
2018-12-02T04:48:19.268Z,24.75
2018-12-02T04:49:25.693Z,25.50
2018-12-02T04:50:30.317Z,20.35
2018-12-02T04:51:36.670Z,21.37
2018-12-02T04:52:42.703Z,21.33
2018-12-02T04:53:47.274Z,17.27
2018-12-02T04:54:52.730Z,16.07
2018-12-02T04:55:57.556Z,13.38
2018-12-02T04:57:02.773Z,14.80
2018-12-02T04:58:07.580Z,13.90
2018-12-02T04:59:12.495Z,17.55
2018-12-02T05:00:18.382Z,18.90
2018-12-02T05:01:23.574Z,16.87
2018-12-02T05:02:28.576Z,21.02
2018-12-02T05:03:34.075Z,25.02
2018-12-02T05:04:39.089Z,24.10
2018-12-02T05:05:43.688Z,21.17
2018-12-02T05:06:48.315Z,20.90
2018-12-02T05:07:53.400Z,20.92
2018-12-02T05:08:57.975Z,20.48
2018-12-02T05:10:02.802Z,26.00
2018-12-02T05:11:08.000Z,27.25
2018-12-02T05:12:13.022Z,24.82
2018-12-02T05:13:17.589Z,24.05
2018-12-02T05:14:23.354Z,26.42
2018-12-02T05:15:28.133Z,18.67
2018-12-02T05:16:32.707Z,14.45
2018-12-02T05:17:37.746Z,11.45
2018-12-02T05:18:42.898Z,17.60
2018-12-02T05:19:47.717Z,13.35
2018-12-02T05:20:52.297Z,9.98
2018-12-02T05:21:58.057Z,14.58
2018-12-02T05:23:04.419Z,14.47
2018-12-02T05:24:09.968Z,16.50
2018-12-02T05:25:17.985Z,18.10
2018-12-02T05:26:21.657Z,14.10
2018-12-02T05:27:26.499Z,12.13
2018-12-02T05:28:31.490Z,8.40
2018-12-02T05:29:36.193Z,10.10
2018-12-02T05:30:41.826Z,9.23
2018-12-02T05:31:47.198Z,12.35
2018-12-02T05:32:55.189Z,18.50
2018-12-02T05:33:59.872Z,13.15
2018-12-02T05:35:04.927Z,18.42
2018-12-02T05:36:12.756Z,21.85
2018-12-02T05:37:17.965Z,13.40
2018-12-02T05:38:22.541Z,9.18
2018-12-02T05:39:27.590Z,13.32
2018-12-02T05:40:32.217Z,17.67
2018-12-02T05:41:41.946Z,13.15
2018-12-02T05:42:47.654Z,12.58
2018-12-02T05:43:52.794Z,13.58
2018-12-02T05:44:59.461Z,14.03
2018-12-02T05:46:04.217Z,15.32
2018-12-02T05:47:09.141Z,17.35
2018-12-02T05:48:15.353Z,14.63
2018-12-02T05:49:20.117Z,18.50
2018-12-02T05:50:25.826Z,23.05
2018-12-02T05:51:31.544Z,15.90
2018-12-02T05:52:36.362Z,23.52
2018-12-02T05:53:45.116Z,19.10
2018-12-02T05:54:49.687Z,16.80
2018-12-02T05:55:56.225Z,17.17
2018-12-02T05:57:01.584Z,17.23
2018-12-02T05:58:08.280Z,22.48
2018-12-02T05:59:13.744Z,19.00
2018-12-02T06:00:20.827Z,21.80
2018-12-02T06:01:25.623Z,22.75
2018-12-02T06:02:30.883Z,18.48
2018-12-02T06:03:40.135Z,17.98
2018-12-02T06:04:45.488Z,20.65
2018-12-02T06:05:51.188Z,19.48
2018-12-02T06:06:55.978Z,20.23
2018-12-02T06:08:02.034Z,23.25
2018-12-02T06:09:09.727Z,25.43
2018-12-02T06:10:19.049Z,24.67
2018-12-02T06:11:23.946Z,23.20
2018-12-02T06:12:31.661Z,22.87
2018-12-02T06:13:37.199Z,19.60
2018-12-02T06:14:42.325Z,20.82
2018-12-02T06:15:49.256Z,16.80
2018-12-02T06:16:58.347Z,18.05
2018-12-02T06:18:03.135Z,21.00
2018-12-02T06:19:07.878Z,21.87
2018-12-02T06:20:14.979Z,24.05
2018-12-02T06:21:20.440Z,26.48
2018-12-02T06:22:25.129Z,23.27
2018-12-02T06:23:29.954Z,19.98
2018-12-02T06:24:35.088Z,20.48
2018-12-02T06:25:46.349Z,24.40
2018-12-02T06:26:44.826Z,21.37
2018-12-02T06:27:51.009Z,22.25
2018-12-02T06:28:58.969Z,20.17
2018-12-02T06:30:04.807Z,22.37
2018-12-02T06:31:11.436Z,25.65
2018-12-02T06:32:17.835Z,21.02
2018-12-02T06:33:23.027Z,24.35
2018-12-02T06:34:28.002Z,20.02
2018-12-02T06:35:34.378Z,20.43
2018-12-02T06:36:41.042Z,20.65
2018-12-02T06:37:45.739Z,21.87
2018-12-02T06:38:52.002Z,16.73
2018-12-02T06:39:57.771Z,14.10
2018-12-02T06:41:02.618Z,16.93
2018-12-02T06:42:07.657Z,15.85
2018-12-02T06:43:12.421Z,17.23
2018-12-02T06:44:17.832Z,14.53
2018-12-02T06:45:23.375Z,8.70
2018-12-02T06:46:29.291Z,6.05
2018-12-02T06:47:35.149Z,9.20
2018-12-02T06:48:40.827Z,6.92
2018-12-02T06:49:46.527Z,7.65
2018-12-02T06:50:51.584Z,9.58
2018-12-02T06:52:06.957Z,11.65
2018-12-02T06:53:22.957Z,6.30
2018-12-02T06:54:36.974Z,7.55
2018-12-02T06:55:57.640Z,4.83
2018-12-02T06:57:22.357Z,6.60
2018-12-02T06:59:08.223Z,5.75
2018-12-02T07:00:25.889Z,7.72
2018-12-02T07:01:40.453Z,8.60
2018-12-02T07:03:25.958Z,3.83
2018-12-02T07:04:35.497Z,6.33
2018-12-02T07:05:51.584Z,3.62
2018-12-02T07:06:57.841Z,3.42
2018-12-02T07:08:04.161Z,3.98
2018-12-02T07:09:29.553Z,5.15
2018-12-02T07:13:51.228Z,11.07
2018-12-02T07:14:56.017Z,10.20
2018-12-02T07:16:01.517Z,11.33
2018-12-02T07:17:09.298Z,11.10
2018-12-02T07:18:19.292Z,10.60
2018-12-02T07:19:33.250Z,7.92
2018-12-02T07:20:49.298Z,7.55
2018-12-02T07:22:04.625Z,9.13
2018-12-02T07:23:20.378Z,11.38
2018-12-02T07:24:29.340Z,12.35
2018-12-02T07:25:38.666Z,6.95
2018-12-02T07:26:46.364Z,12.63
2018-12-02T07:27:54.827Z,10.18
2018-12-02T07:29:00.174Z,7.17
2018-12-02T07:30:09.293Z,6.85
2018-12-02T07:31:13.967Z,9.88
2018-12-02T07:32:21.297Z,9.33
2018-12-02T07:33:26.304Z,6.65
2018-12-02T07:34:31.042Z,10.60
2018-12-02T07:35:36.234Z,18.75
2018-12-02T07:36:42.678Z,15.83
2018-12-02T07:37:56.962Z,14.15
2018-12-02T07:39:52.108Z,10.48
2018-12-02T07:40:57.757Z,9.33
2018-12-02T07:42:05.585Z,12.10
2018-12-02T07:43:12.325Z,12.35
2018-12-02T07:44:17.313Z,11.88
2018-12-02T07:45:23.756Z,9.95
2018-12-02T07:46:28.687Z,10.68
2018-12-02T07:47:33.537Z,11.03
2018-12-02T07:48:40.065Z,6.45
2018-12-02T07:49:44.664Z,10.05
2018-12-02T07:50:49.230Z,8.73
2018-12-02T07:51:54.746Z,8.10
2018-12-02T07:53:01.029Z,9.43
2018-12-02T07:54:06.907Z,6.42
2018-12-02T07:55:13.776Z,5.58
2018-12-02T07:56:19.812Z,6.17
2018-12-02T07:57:25.264Z,6.00
2018-12-02T07:58:30.859Z,5.45
2018-12-02T07:59:36.704Z,7.58
2018-12-02T08:00:42.280Z,6.83
2018-12-02T08:01:47.026Z,10.28
2018-12-02T08:02:55.776Z,4.40
2018-12-02T08:04:02.772Z,10.70
2018-12-02T08:05:10.324Z,6.87
2018-12-02T08:06:19.504Z,5.72
2018-12-02T08:07:27.177Z,3.90
2018-12-02T08:08:33.069Z,6.22
2018-12-02T08:09:37.885Z,4.37
2018-12-02T08:10:45.441Z,5.25
2018-12-02T08:11:51.554Z,6.45
2018-12-02T08:13:05.819Z,4.00
2018-12-02T08:14:12.595Z,4.15
2018-12-02T08:15:19.735Z,4.65
2018-12-02T08:16:28.102Z,4.92
2018-12-02T08:17:34.285Z,3.70
2018-12-02T08:18:40.044Z,8.08
2018-12-02T08:19:57.954Z,8.28
2018-12-02T08:21:10.022Z,5.12
2018-12-02T08:22:20.331Z,4.35
2018-12-02T08:23:25.835Z,5.05
2018-12-02T08:24:32.472Z,5.33
2018-12-02T08:25:39.727Z,5.03
2018-12-02T08:26:45.273Z,4.10
2018-12-02T08:27:52.035Z,6.03
2018-12-02T08:28:56.639Z,7.17
2018-12-02T08:30:05.547Z,11.03
2018-12-02T08:31:14.797Z,7.45
2018-12-02T08:32:21.790Z,6.15
2018-12-02T08:33:34.788Z,6.78
2018-12-02T08:34:41.809Z,4.42
2018-12-02T08:35:46.913Z,4.65
2018-12-02T08:36:51.816Z,10.80
2018-12-02T08:38:01.878Z,6.35
2018-12-02T08:39:10.449Z,13.13
2018-12-02T08:40:16.879Z,7.50
2018-12-02T08:41:22.413Z,6.28
2018-12-02T08:42:27.636Z,5.30
2018-12-02T08:43:32.775Z,6.45
2018-12-02T08:44:38.355Z,3.80
2018-12-02T08:45:43.660Z,5.00
2018-12-02T08:46:49.200Z,3.95
2018-12-02T08:47:53.809Z,6.17
2018-12-02T08:48:58.474Z,3.90
2018-12-02T08:50:05.109Z,3.45
2018-12-02T08:51:10.591Z,7.95
2018-12-02T08:52:16.078Z,4.75
2018-12-02T08:53:25.905Z,5.00
2018-12-02T08:54:31.449Z,6.33
2018-12-02T08:55:36.941Z,9.78
2018-12-02T08:56:48.956Z,7.20
2018-12-02T08:58:14.238Z,5.12
2018-12-02T08:59:20.084Z,3.92
2018-12-02T09:00:26.265Z,6.08
2018-12-02T09:01:31.794Z,3.62
2018-12-02T09:02:36.726Z,3.58
2018-12-02T09:03:44.014Z,3.72
2018-12-02T09:04:49.975Z,6.58
2018-12-02T09:05:55.277Z,3.90
2018-12-02T09:07:00.699Z,6.95
2018-12-02T09:08:05.895Z,5.78
2018-12-02T09:09:11.440Z,6.72
2018-12-02T09:10:19.242Z,5.65
2018-12-02T09:11:24.532Z,5.80
2018-12-02T09:12:30.428Z,5.47
2018-12-02T09:13:36.366Z,5.37
2018-12-02T09:14:41.080Z,6.30
2018-12-02T09:15:47.277Z,4.85
2018-12-02T09:16:52.991Z,5.75
2018-12-02T09:18:03.745Z,9.03
2018-12-02T09:19:08.596Z,3.35
2018-12-02T09:20:21.361Z,3.17
2018-12-02T09:21:26.863Z,4.58
2018-12-02T09:22:33.955Z,7.12
2018-12-02T09:23:39.725Z,4.78
2018-12-02T09:24:45.113Z,12.88
2018-12-02T09:25:50.817Z,5.40
2018-12-02T09:26:55.413Z,5.00
2018-12-02T09:28:00.024Z,4.53
2018-12-02T09:29:05.091Z,5.78
2018-12-02T09:30:14.010Z,5.55
2018-12-02T09:31:21.458Z,8.45
2018-12-02T09:32:26.721Z,7.70
2018-12-02T09:33:36.834Z,5.60
2018-12-02T09:34:42.839Z,9.10
2018-12-02T09:35:49.030Z,8.35
2018-12-02T09:36:57.941Z,9.13
2018-12-02T09:38:03.832Z,8.38
2018-12-02T09:39:18.265Z,6.00
2018-12-02T09:40:22.809Z,10.88
2018-12-02T09:41:34.417Z,11.48
2018-12-02T09:42:40.547Z,9.90
2018-12-02T09:43:50.532Z,8.20
2018-12-02T09:44:57.200Z,8.48
2018-12-02T09:46:04.128Z,8.85
2018-12-02T09:47:12.752Z,8.25
2018-12-02T09:48:19.536Z,8.63
2018-12-02T09:49:25.772Z,11.22
2018-12-02T09:50:35.350Z,6.62
2018-12-02T09:51:42.172Z,6.22
2018-12-02T09:52:47.297Z,5.08
2018-12-02T09:53:54.165Z,5.30
2018-12-02T09:55:01.936Z,5.15
2018-12-02T09:56:11.282Z,7.97
2018-12-02T09:57:18.392Z,3.45
2018-12-02T09:58:29.348Z,5.05
2018-12-02T09:59:37.679Z,4.15
2018-12-02T10:00:44.010Z,3.67
2018-12-02T10:01:51.181Z,3.15
2018-12-02T10:03:00.705Z,3.42
2018-12-02T10:04:09.643Z,4.47
2018-12-02T10:05:15.874Z,3.80
2018-12-02T10:06:26.354Z,3.42
2018-12-02T10:07:33.917Z,4.50
2018-12-02T10:08:40.436Z,4.37
2018-12-02T10:09:47.237Z,8.93
2018-12-02T10:10:54.089Z,6.03
2018-12-02T10:12:01.932Z,5.60
2018-12-02T10:13:15.490Z,3.85
2018-12-02T10:14:22.743Z,4.00
2018-12-02T10:15:30.534Z,3.50
2018-12-02T10:16:37.635Z,13.80
2018-12-02T10:17:44.884Z,5.50
2018-12-02T10:18:55.290Z,4.20
2018-12-02T10:20:01.195Z,4.33
2018-12-02T10:21:09.354Z,4.25
2018-12-02T10:22:29.344Z,5.50
2018-12-02T10:23:37.083Z,4.22
2018-12-02T10:24:43.739Z,5.20
2018-12-02T10:25:50.444Z,6.60
2018-12-02T10:26:59.441Z,4.80
2018-12-02T10:28:04.400Z,5.50
2018-12-02T10:29:10.229Z,5.72
2018-12-02T10:30:21.059Z,5.92
2018-12-02T10:31:28.461Z,8.85
2018-12-02T10:32:35.206Z,5.10
2018-12-02T10:33:43.146Z,5.25
2018-12-02T10:34:49.496Z,8.40
2018-12-02T10:35:54.479Z,6.92
2018-12-02T10:37:00.181Z,6.17
2018-12-02T10:38:06.602Z,5.25
2018-12-02T10:39:13.080Z,5.28
2018-12-02T10:40:20.537Z,6.70
2018-12-02T10:41:25.736Z,6.45
2018-12-02T10:42:34.501Z,4.65
2018-12-02T10:43:40.291Z,4.58
2018-12-02T10:44:45.243Z,4.40
2018-12-02T10:45:55.171Z,4.25
2018-12-02T10:47:01.184Z,5.40
2018-12-02T10:48:09.396Z,4.33
2018-12-02T10:49:16.440Z,5.22
2018-12-02T10:50:37.791Z,5.75
2018-12-02T10:51:44.070Z,4.40
2018-12-02T10:52:49.814Z,6.05
2018-12-02T10:53:54.521Z,4.35
2018-12-02T10:55:01.347Z,5.28
2018-12-02T10:56:08.970Z,4.45
2018-12-02T10:57:15.442Z,4.55
2018-12-02T10:58:23.808Z,5.75
2018-12-02T10:59:30.328Z,6.37
2018-12-02T11:02:45.330Z,3.52
2018-12-02T11:03:51.403Z,7.10
2018-12-02T11:04:58.313Z,3.72
2018-12-02T11:06:05.516Z,8.55
2018-12-02T11:07:13.342Z,4.35
2018-12-02T11:08:19.313Z,3.67
2018-12-02T11:09:26.553Z,4.20
2018-12-02T11:10:34.179Z,3.92
2018-12-02T11:11:41.044Z,6.05
2018-12-02T11:12:48.466Z,3.50
2018-12-02T11:14:00.426Z,3.52
2018-12-02T11:15:08.749Z,3.98
2018-12-02T11:16:15.830Z,6.10
2018-12-02T11:17:22.913Z,3.12
2018-12-02T11:18:31.481Z,3.80
2018-12-02T11:19:38.056Z,4.75
2018-12-02T11:20:51.056Z,2.92
2018-12-02T11:21:58.342Z,4.03
2018-12-02T11:23:05.782Z,4.25
2018-12-02T11:24:11.530Z,4.17
2018-12-02T11:25:17.427Z,4.55
2018-12-02T11:26:25.575Z,5.87
2018-12-02T11:27:32.500Z,4.53
2018-12-02T11:28:41.138Z,9.13
2018-12-02T11:29:47.673Z,7.10
2018-12-02T11:30:52.456Z,6.50
2018-12-02T11:31:58.935Z,12.23
2018-12-02T11:33:04.763Z,4.42
2018-12-02T11:34:11.857Z,4.12
2018-12-02T11:35:20.239Z,7.42
2018-12-02T11:36:25.445Z,6.83
2018-12-02T11:37:31.828Z,5.30
2018-12-02T11:38:49.419Z,6.33
2018-12-02T11:39:56.673Z,8.85
2018-12-02T11:41:05.034Z,6.87
2018-12-02T11:42:10.922Z,6.12
2018-12-02T11:43:16.273Z,5.45
2018-12-02T11:44:27.934Z,6.95
2018-12-02T11:45:33.470Z,7.62
2018-12-02T11:46:56.246Z,5.12
2018-12-02T11:48:07.016Z,4.55
2018-12-02T11:49:15.426Z,7.33
2018-12-02T11:50:25.871Z,8.30
2018-12-02T11:51:31.701Z,5.87
2018-12-02T11:52:37.191Z,6.20
2018-12-02T11:53:42.583Z,6.45
2018-12-02T11:54:49.294Z,6.62
2018-12-02T11:55:58.237Z,6.55
2018-12-02T11:57:06.547Z,5.53
2018-12-02T11:58:11.535Z,7.90
2018-12-02T11:59:19.295Z,16.20
2018-12-02T12:00:28.540Z,4.85
2018-12-02T12:01:34.394Z,5.10
2018-12-02T12:02:40.353Z,6.87
2018-12-02T12:03:45.850Z,5.60
2018-12-02T12:04:50.602Z,5.00
2018-12-02T12:05:56.724Z,4.17
2018-12-02T12:07:01.966Z,6.25
2018-12-02T12:08:09.083Z,3.98
2018-12-02T12:09:16.236Z,5.22
2018-12-02T12:10:23.382Z,6.80
2018-12-02T12:11:32.144Z,5.10
2018-12-02T12:12:39.885Z,5.05
2018-12-02T12:13:47.387Z,5.55
2018-12-02T12:14:53.965Z,5.33
2018-12-02T12:16:04.521Z,4.47
2018-12-02T12:17:11.370Z,5.67
2018-12-02T12:18:19.282Z,5.35
2018-12-02T12:19:24.713Z,4.72
2018-12-02T12:21:01.498Z,6.65
2018-12-02T12:22:10.344Z,8.05
2018-12-02T12:23:19.701Z,6.92
2018-12-02T12:24:25.758Z,4.72
2018-12-02T12:25:35.309Z,6.10
2018-12-02T12:26:47.464Z,5.58
2018-12-02T12:27:56.521Z,5.85
2018-12-02T12:29:09.320Z,4.85
2018-12-02T12:30:28.272Z,7.50
2018-12-02T12:31:33.678Z,7.55
2018-12-02T12:32:41.516Z,5.47
2018-12-02T12:33:51.192Z,5.92
2018-12-02T12:34:56.916Z,5.83
2018-12-02T12:36:04.387Z,5.12
2018-12-02T12:37:09.020Z,8.20
2018-12-02T12:38:17.879Z,5.20
2018-12-02T12:39:23.936Z,7.60
2018-12-02T12:40:30.156Z,5.28
2018-12-02T12:41:34.729Z,4.40
2018-12-02T12:42:39.975Z,4.70
2018-12-02T12:43:47.740Z,6.05
2018-12-02T12:44:53.409Z,4.80
2018-12-02T12:45:58.028Z,5.40
2018-12-02T12:47:03.282Z,5.28
2018-12-02T12:48:07.757Z,8.68
2018-12-02T12:49:13.754Z,6.65
2018-12-02T12:50:19.797Z,5.47
2018-12-02T12:51:24.731Z,6.12
2018-12-02T12:52:29.247Z,4.87
2018-12-02T12:53:34.722Z,5.55
2018-12-02T12:54:42.564Z,5.70
2018-12-02T12:55:50.984Z,5.67
2018-12-02T12:56:55.884Z,5.92
2018-12-02T12:58:04.261Z,8.65
2018-12-02T12:59:10.723Z,4.50
2018-12-02T13:00:23.129Z,5.45
2018-12-02T13:01:28.519Z,6.95
2018-12-02T13:02:38.819Z,6.03
2018-12-02T13:03:45.076Z,4.78
2018-12-02T13:04:50.462Z,7.72
2018-12-02T13:05:57.303Z,5.55
2018-12-02T13:07:03.927Z,4.85
2018-12-02T13:08:12.413Z,6.53
2018-12-02T13:09:21.865Z,10.10
2018-12-02T13:10:32.475Z,7.97
2018-12-02T13:11:43.580Z,6.08
2018-12-02T13:15:23.664Z,8.43
2018-12-02T13:16:45.839Z,5.33
2018-12-02T13:18:09.788Z,3.62
2018-12-02T13:19:14.600Z,4.42
2018-12-02T13:20:21.809Z,3.80
2018-12-02T13:21:35.993Z,5.62
2018-12-02T13:22:44.981Z,5.05
2018-12-02T13:23:50.491Z,5.55
2018-12-02T13:25:00.421Z,6.50
2018-12-02T13:26:14.606Z,4.03
2018-12-02T13:27:21.415Z,6.08
2018-12-02T13:28:28.750Z,4.40
2018-12-02T13:29:38.016Z,5.90
2018-12-02T13:30:44.160Z,4.30
2018-12-02T13:31:52.371Z,5.80
2018-12-02T13:32:57.701Z,5.45
2018-12-02T13:34:03.938Z,6.35
2018-12-02T13:35:11.324Z,3.83
2018-12-02T13:36:18.447Z,6.78
2018-12-02T13:37:23.935Z,3.95
2018-12-02T13:38:29.969Z,3.70
2018-12-02T13:39:35.159Z,5.60
2018-12-02T13:40:41.349Z,6.00
2018-12-02T13:41:49.183Z,3.83
2018-12-02T13:42:58.661Z,4.25
2018-12-02T13:44:04.426Z,3.90
2018-12-02T13:45:14.898Z,7.00
2018-12-02T13:46:21.307Z,5.33
2018-12-02T13:47:28.371Z,7.83
2018-12-02T13:48:35.493Z,3.90
2018-12-02T13:49:40.429Z,6.97
2018-12-02T13:50:45.531Z,5.00
2018-12-02T13:51:51.289Z,4.00
2018-12-02T13:52:58.860Z,3.30
2018-12-02T13:54:09.258Z,4.75
2018-12-02T13:55:15.929Z,3.70
2018-12-02T13:56:23.083Z,3.30
2018-12-02T13:57:28.531Z,5.10
2018-12-02T13:58:34.358Z,4.62
2018-12-02T13:59:40.341Z,6.45
2018-12-02T14:00:45.233Z,5.10
2018-12-02T14:01:50.526Z,5.92
2018-12-02T14:02:58.483Z,4.75
2018-12-02T14:04:04.326Z,4.03
2018-12-02T14:05:10.198Z,12.10
2018-12-02T14:06:16.889Z,5.72
2018-12-02T14:07:21.477Z,15.23
2018-12-02T14:08:26.614Z,5.40
2018-12-02T14:09:33.689Z,4.58
2018-12-02T14:10:38.680Z,4.83
2018-12-02T14:11:45.277Z,6.85
2018-12-02T14:12:59.866Z,8.33
2018-12-02T14:14:09.432Z,4.40
2018-12-02T14:15:29.455Z,5.92
2018-12-02T14:16:46.631Z,5.58
2018-12-02T14:17:55.926Z,10.13
2018-12-02T14:19:04.279Z,6.47
2018-12-02T14:20:09.887Z,4.78
2018-12-02T14:21:23.893Z,5.83
2018-12-02T14:22:32.430Z,8.18
2018-12-02T14:23:41.416Z,10.08
2018-12-02T14:24:46.436Z,4.10
2018-12-02T14:25:52.352Z,4.87
2018-12-02T14:27:00.019Z,6.12
2018-12-02T14:28:12.271Z,6.40
2018-12-02T14:29:21.684Z,9.03
2018-12-02T14:30:26.896Z,9.18
2018-12-02T14:31:38.372Z,13.88
2018-12-02T14:32:46.312Z,5.25
2018-12-02T14:33:53.364Z,6.58
2018-12-02T14:35:02.500Z,6.33
2018-12-02T14:36:09.530Z,5.70
2018-12-02T14:37:16.505Z,8.23
2018-12-02T14:38:21.843Z,5.20
2018-12-02T14:39:27.936Z,11.53
2018-12-02T14:40:39.169Z,6.25
2018-12-02T14:41:48.582Z,8.03
2018-12-02T14:42:55.757Z,7.33
2018-12-02T14:44:03.746Z,11.00
2018-12-02T14:45:15.432Z,8.43
2018-12-02T14:46:20.921Z,5.00
2018-12-02T14:47:26.157Z,7.72
2018-12-02T14:48:30.717Z,5.05
2018-12-02T14:49:38.819Z,4.92
2018-12-02T14:50:45.697Z,5.87
2018-12-02T14:51:51.112Z,8.15
2018-12-02T14:52:56.938Z,8.50
2018-12-02T14:54:07.316Z,7.15
2018-12-02T14:55:14.597Z,8.30
2018-12-02T14:56:20.243Z,8.78
2018-12-02T14:57:25.271Z,6.55
2018-12-02T14:58:30.525Z,8.55
2018-12-02T14:59:37.336Z,16.55
2018-12-02T15:00:44.736Z,7.95
2018-12-02T15:01:51.422Z,7.12
2018-12-02T15:02:57.592Z,5.92
2018-12-02T15:04:04.258Z,6.30
2018-12-02T15:05:11.394Z,8.25